New York Mills, MN (56567)

5:24 PM CDT on October 31, 2014 (GMT -0500)
SE Perham | Change Station
CLOSE
Current Station
Personal Weather Station
Location: Perham, MN
Elevation: 1365 ft
Nearby Weather Stations

Elev 1365 ft 46.59 °N, 95.57 °W | Updated 4 minutes ago

Clear
Clear
37.4 °F
Feels Like 33 °F
N
5.8
Wind Variable Wind from SSE
Gusts 8.1 mph

Today
High -- | Low -- °F
--% Chance of Precip.
Yesterday
High -- | Low -- °F
Precip. -- in
8:01 AM 6:07 PM
First Quarter, 59% visible
Pressure 30.46 in
Visibility 10.0 miles
Clouds Clear
Windchill 33 °F
Dew Point 16 °F
Humidity 41%
Rainfall 0.00 in
Snow Depth Not available.
UV 0 out of 12
Pollen .10 out of 12
Air Quality Not available.
Flu Activity Not available.
METAR KADC 312214Z AUTO 17003KT 10SM CLR 02/M09 A3046 RMK AO2

More Conditions Fewer Conditions

Pressure 30.46 in
Visibility 10.0 miles
Clouds Clear
Windchill 33 °F
Dew Point 16 °F
Humidity 41%
Rainfall 0.00 in
Snow Depth Not available.
UV 0 out of 12
Pollen .10 out of 12
Air Quality Not available.
Flu Activity Not available.
METAR KADC 312214Z AUTO 17003KT 10SM CLR 02/M09 A3046 RMK AO2

More Conditions Fewer Conditions

10-Day Weather Forecast

Almanac

Astronomy

Oct. 31, 2014 Rise Set
Actual Time
Civil Twilight
Nautical Twilight
Astronomical Twilight
Moon
Length of Visible Light
Length of Day
Tomorrow will be .
, % of the Moon is Illuminated

Today's Extremes

State Highs State Lows

Community

WunderPhotos

Upload Photos

1,766,757 photos uploaded!

WunderBlogs® & News

Nearby

Air Quality

  Air Quality AQ Index Pollutant
Not available.

Snow Depth

Station Depth Elevation

Earthquake Activity

City Distance Mag. Time & Date
Minimum magnitude displayed is 2.5.

Coastal Water Temperatures

Place Temperature

Nearby Weather Stations